createdAt,value
2022-08-03T00:00:57.231Z,4.70
2022-08-03T00:03:39.938Z,4.70
2022-08-03T00:06:22.795Z,4.60
2022-08-03T00:09:06.243Z,4.60
2022-08-03T00:11:49.152Z,4.10
2022-08-03T00:14:34.305Z,4.00
2022-08-03T00:17:16.991Z,3.90
2022-08-03T00:19:59.697Z,4.60
2022-08-03T00:22:42.549Z,5.30
2022-08-03T00:25:25.912Z,4.40
2022-08-03T00:28:08.886Z,4.10
2022-08-03T00:30:51.742Z,4.50
2022-08-03T00:33:58.982Z,4.20
2022-08-03T00:36:37.649Z,4.20
2022-08-03T00:39:20.304Z,3.90
2022-08-03T00:42:03.991Z,6.00
2022-08-03T00:44:46.933Z,4.50
2022-08-03T00:47:29.657Z,5.60
2022-08-03T00:50:12.644Z,3.90
2022-08-03T00:52:58.055Z,4.90
2022-08-03T00:55:41.781Z,3.90
2022-08-03T00:58:27.503Z,4.40
2022-08-03T01:01:11.711Z,4.80
2022-08-03T01:03:54.579Z,5.00
2022-08-03T01:06:45.753Z,4.50
2022-08-03T01:09:38.022Z,6.30
2022-08-03T01:12:28.588Z,7.20
2022-08-03T01:15:19.375Z,11.40
2022-08-03T01:18:09.486Z,28.70
2022-08-03T01:20:56.269Z,14.70
2022-08-03T01:23:56.416Z,8.60
2022-08-03T01:27:00.583Z,5.20
2022-08-03T01:30:01.696Z,5.40
2022-08-03T01:32:53.427Z,4.50
2022-08-03T01:35:48.372Z,4.20
2022-08-03T01:38:35.705Z,5.20
2022-08-03T01:41:29.593Z,6.00
2022-08-03T01:44:29.571Z,4.50
2022-08-03T01:47:15.165Z,5.10
2022-08-03T01:50:02.086Z,5.40
2022-08-03T01:52:47.740Z,4.80
2022-08-03T01:55:32.653Z,5.20
2022-08-03T01:58:16.917Z,4.80
2022-08-03T02:01:02.364Z,4.60
2022-08-03T02:04:00.263Z,4.70
2022-08-03T02:07:02.540Z,4.90
2022-08-03T02:09:51.136Z,4.50
2022-08-03T02:12:36.864Z,5.80
2022-08-03T02:15:20.054Z,5.40
2022-08-03T02:18:05.774Z,4.90
2022-08-03T02:20:49.860Z,4.60
2022-08-03T02:23:32.720Z,5.00
2022-08-03T02:26:20.074Z,5.10
2022-08-03T02:29:11.064Z,5.50
2022-08-03T02:31:57.678Z,4.70
2022-08-03T02:34:44.880Z,4.60
2022-08-03T02:37:32.095Z,5.10
2022-08-03T02:40:17.720Z,5.70
2022-08-03T02:43:05.051Z,5.30
2022-08-03T02:45:51.139Z,5.30
2022-08-03T02:51:20.927Z,4.90
2022-08-03T02:54:06.022Z,5.60
2022-08-03T02:56:50.043Z,5.80
2022-08-03T02:59:33.377Z,5.40
2022-08-03T03:02:18.127Z,6.00
2022-08-03T03:05:52.162Z,4.80
2022-08-03T03:08:06.097Z,6.00
2022-08-03T03:11:02.440Z,6.20
2022-08-03T03:13:46.260Z,6.80
2022-08-03T03:16:31.126Z,5.20
2022-08-03T03:19:15.534Z,6.50
2022-08-03T03:22:00.768Z,6.70
2022-08-03T03:24:45.349Z,6.20
2022-08-03T03:27:28.841Z,7.10
2022-08-03T03:30:14.443Z,6.90
2022-08-03T03:32:58.488Z,7.00
2022-08-03T03:35:42.858Z,6.70
2022-08-03T03:38:25.822Z,6.10
2022-08-03T03:41:09.572Z,6.40
2022-08-03T03:43:52.536Z,6.10
2022-08-03T03:46:35.365Z,6.40
2022-08-03T03:49:18.610Z,6.90
2022-08-03T03:52:01.429Z,7.50
2022-08-03T03:54:45.893Z,8.00
2022-08-03T03:57:29.070Z,5.60
2022-08-03T04:00:15.572Z,7.00
2022-08-03T04:02:58.447Z,7.40
2022-08-03T04:05:59.804Z,8.30
2022-08-03T04:09:00.737Z,7.00
2022-08-03T04:11:51.987Z,6.40
2022-08-03T04:14:37.280Z,7.80
2022-08-03T04:17:21.781Z,8.40
2022-08-03T04:20:06.985Z,6.90
2022-08-03T04:22:51.170Z,7.70
2022-08-03T04:25:37.731Z,7.10
2022-08-03T04:28:31.088Z,8.30
2022-08-03T04:31:15.798Z,9.60
2022-08-03T04:33:59.201Z,8.90
2022-08-03T04:36:49.085Z,10.90
2022-08-03T04:39:32.709Z,7.60
2022-08-03T04:42:16.452Z,8.40
2022-08-03T04:45:01.628Z,8.90
2022-08-03T04:47:44.732Z,8.40
2022-08-03T04:50:28.289Z,8.50
2022-08-03T04:53:19.767Z,7.70
2022-08-03T04:56:06.023Z,9.60
2022-08-03T04:58:48.842Z,8.90
2022-08-03T05:01:34.043Z,8.90
2022-08-03T05:04:16.871Z,7.60
2022-08-03T05:06:59.708Z,9.80
2022-08-03T05:10:01.718Z,8.10
2022-08-03T05:12:48.444Z,10.20
2022-08-03T05:15:31.394Z,9.40
2022-08-03T05:18:14.562Z,7.80
2022-08-03T05:20:57.455Z,7.70
2022-08-03T05:23:40.888Z,9.10
2022-08-03T05:26:23.667Z,9.50
2022-08-03T05:29:06.386Z,10.00
2022-08-03T05:31:49.235Z,7.90
2022-08-03T05:34:32.080Z,7.70
2022-08-03T05:37:14.756Z,9.00
2022-08-03T05:39:57.465Z,8.70
2022-08-03T05:42:40.161Z,10.50
2022-08-03T05:45:28.141Z,10.90
2022-08-03T05:48:11.462Z,7.80
2022-08-03T05:50:54.373Z,8.60
2022-08-03T05:53:37.831Z,8.60
2022-08-03T05:56:24.020Z,8.20
2022-08-03T05:59:35.765Z,9.00
2022-08-03T06:02:16.494Z,8.60
2022-08-03T06:04:59.518Z,9.00
2022-08-03T06:07:42.350Z,9.00
2022-08-03T06:10:34.410Z,7.40
2022-08-03T06:13:21.337Z,9.40
2022-08-03T06:16:04.925Z,8.40
2022-08-03T06:18:47.634Z,8.70
2022-08-03T06:21:30.337Z,9.40
2022-08-03T06:24:13.913Z,7.70
2022-08-03T06:26:58.394Z,6.40
2022-08-03T06:29:41.099Z,7.80
2022-08-03T06:32:23.912Z,7.20
2022-08-03T06:35:08.321Z,6.40
2022-08-03T06:37:51.604Z,8.50
2022-08-03T06:40:39.351Z,6.40
2022-08-03T06:43:22.174Z,8.70
2022-08-03T06:46:05.653Z,7.00
2022-08-03T06:48:48.669Z,7.60
2022-08-03T06:52:05.249Z,5.70
2022-08-03T06:54:35.876Z,5.80
2022-08-03T06:57:18.843Z,7.10
2022-08-03T07:00:08.852Z,4.90
2022-08-03T07:02:58.454Z,5.00
2022-08-03T07:05:42.985Z,5.30
2022-08-03T07:08:33.639Z,5.00
2022-08-03T07:11:17.610Z,7.70
2022-08-03T07:14:00.703Z,7.00
2022-08-03T07:16:45.305Z,5.90
2022-08-03T07:19:28.184Z,6.00
2022-08-03T07:22:11.231Z,4.90
2022-08-03T07:24:54.188Z,4.70
2022-08-03T07:27:37.760Z,5.10
2022-08-03T07:30:20.532Z,5.80
2022-08-03T07:33:03.323Z,5.20
2022-08-03T07:35:49.045Z,6.20
2022-08-03T07:38:31.984Z,4.50
2022-08-03T07:41:14.692Z,6.20
2022-08-03T07:43:57.466Z,5.70
2022-08-03T07:46:47.256Z,4.60
2022-08-03T07:49:33.018Z,4.00
2022-08-03T07:52:36.787Z,4.70
2022-08-03T07:55:21.534Z,4.80
2022-08-03T07:58:09.350Z,3.70
2022-08-03T08:00:52.847Z,3.70
2022-08-03T08:03:49.877Z,4.50
2022-08-03T08:06:35.405Z,3.90
2022-08-03T08:09:18.354Z,4.00
2022-08-03T08:12:01.043Z,4.30
2022-08-03T08:14:46.023Z,4.10
2022-08-03T08:17:28.834Z,3.90
2022-08-03T08:20:15.476Z,5.10
2022-08-03T08:23:03.573Z,3.30
2022-08-03T08:26:06.208Z,3.80
2022-08-03T08:28:49.971Z,3.80
2022-08-03T08:31:33.691Z,4.70
2022-08-03T08:34:16.455Z,4.30
2022-08-03T08:36:59.129Z,3.50
2022-08-03T08:39:41.883Z,3.90
2022-08-03T08:42:24.812Z,3.20
2022-08-03T08:45:11.194Z,3.30
2022-08-03T08:48:00.409Z,3.20
2022-08-03T08:50:46.048Z,3.00
2022-08-03T08:53:32.147Z,3.50
2022-08-03T08:56:16.718Z,3.50
2022-08-03T08:59:02.212Z,2.90
2022-08-03T09:01:46.531Z,3.60
2022-08-03T09:04:30.585Z,3.50
2022-08-03T09:07:20.639Z,4.10
2022-08-03T09:10:12.049Z,2.90
2022-08-03T09:12:56.121Z,3.20
2022-08-03T09:15:38.939Z,3.20
2022-08-03T09:18:30.518Z,3.00
2022-08-03T09:21:31.234Z,3.50
2022-08-03T09:24:40.593Z,4.00
2022-08-03T09:27:23.980Z,2.90
2022-08-03T09:30:33.125Z,3.40
2022-08-03T09:33:16.913Z,3.40
2022-08-03T09:35:59.739Z,3.00
2022-08-03T09:38:43.313Z,3.70
2022-08-03T09:41:26.066Z,2.90
2022-08-03T09:44:09.015Z,3.20
2022-08-03T09:47:09.344Z,3.20
2022-08-03T09:50:01.273Z,3.70
2022-08-03T09:52:49.912Z,3.10
2022-08-03T09:56:35.041Z,2.70
2022-08-03T09:58:46.383Z,3.10
2022-08-03T10:01:34.531Z,3.40
2022-08-03T10:04:19.755Z,3.40
2022-08-03T10:09:54.808Z,3.40
2022-08-03T10:12:38.618Z,3.90
2022-08-03T10:16:23.118Z,2.60
2022-08-03T10:18:26.782Z,3.40
2022-08-03T10:21:16.466Z,2.90
2022-08-03T10:24:01.894Z,2.70
2022-08-03T10:26:49.688Z,3.40
2022-08-03T10:29:39.742Z,3.40
2022-08-03T10:32:28.587Z,2.80
2022-08-03T10:35:20.817Z,2.90
2022-08-03T10:38:09.395Z,2.70
2022-08-03T10:40:58.962Z,4.20
2022-08-03T10:43:49.953Z,2.70
2022-08-03T10:46:35.386Z,2.80
2022-08-03T10:49:32.829Z,2.40
2022-08-03T10:52:31.834Z,3.20
2022-08-03T10:55:54.406Z,2.50
2022-08-03T10:58:53.255Z,2.40
2022-08-03T11:01:58.717Z,2.50
2022-08-03T11:04:44.207Z,2.70
2022-08-03T11:10:32.153Z,3.00
2022-08-03T11:13:17.750Z,2.70
2022-08-03T11:16:06.554Z,2.80
2022-08-03T11:18:58.676Z,2.40
2022-08-03T11:21:57.617Z,2.50
2022-08-03T11:25:02.155Z,2.10
2022-08-03T11:27:45.265Z,2.30
2022-08-03T11:30:29.217Z,4.60
2022-08-03T11:33:30.168Z,3.40
2022-08-03T11:36:15.840Z,2.20
2022-08-03T11:39:17.085Z,3.80
2022-08-03T11:41:59.979Z,3.20
2022-08-03T11:44:47.521Z,2.20
2022-08-03T11:47:30.621Z,2.30
2022-08-03T11:50:13.477Z,2.30
2022-08-03T11:52:56.309Z,2.40
2022-08-03T11:55:41.456Z,2.30
2022-08-03T11:59:01.689Z,2.30
2022-08-03T12:01:27.483Z,3.40
2022-08-03T12:04:11.072Z,3.50
2022-08-03T12:07:01.009Z,2.40
2022-08-03T12:09:43.739Z,2.30
2022-08-03T12:12:26.480Z,2.70
2022-08-03T12:15:11.278Z,2.50
2022-08-03T12:17:57.692Z,2.30
2022-08-03T12:20:41.290Z,2.00
2022-08-03T12:23:26.920Z,2.60
2022-08-03T12:26:10.538Z,2.50
2022-08-03T12:28:53.383Z,2.40
2022-08-03T12:31:36.746Z,2.20
2022-08-03T12:34:19.479Z,3.10
2022-08-03T12:37:21.754Z,2.60
2022-08-03T12:40:11.147Z,2.10
2022-08-03T12:42:55.649Z,3.00
2022-08-03T12:45:38.566Z,3.10
2022-08-03T12:48:21.296Z,3.70
2022-08-03T12:51:11.149Z,2.60
2022-08-03T12:53:55.063Z,2.60
2022-08-03T12:56:57.339Z,2.30
2022-08-03T12:59:42.213Z,2.70
2022-08-03T13:02:32.838Z,2.30
2022-08-03T13:05:15.862Z,2.10
2022-08-03T13:07:59.283Z,3.10
2022-08-03T13:10:42.575Z,3.00
2022-08-03T13:13:39.627Z,3.10
2022-08-03T13:16:23.910Z,2.60
2022-08-03T13:19:10.045Z,2.00
2022-08-03T13:22:03.721Z,2.50
2022-08-03T13:24:49.316Z,2.50
2022-08-03T13:28:03.619Z,2.30
2022-08-03T13:30:37.430Z,3.00
2022-08-03T13:33:20.160Z,2.50
2022-08-03T13:36:03.199Z,2.30
2022-08-03T13:38:46.192Z,2.70
2022-08-03T13:41:31.361Z,2.90
2022-08-03T13:44:30.071Z,2.70
2022-08-03T13:47:13.019Z,3.00
2022-08-03T13:50:01.104Z,2.30
2022-08-03T13:52:45.711Z,2.50
2022-08-03T13:55:28.925Z,2.40
2022-08-03T13:58:12.271Z,3.50
2022-08-03T14:00:55.148Z,2.40
2022-08-03T14:03:37.926Z,2.80
2022-08-03T14:06:21.137Z,2.50
2022-08-03T14:09:04.373Z,3.10
2022-08-03T14:12:08.438Z,2.20
2022-08-03T14:14:52.098Z,2.50
2022-08-03T14:17:42.103Z,2.70
2022-08-03T14:20:36.214Z,3.30
2022-08-03T14:23:28.223Z,3.00
2022-08-03T14:26:11.432Z,2.60
2022-08-03T14:28:55.183Z,2.40
2022-08-03T14:32:10.995Z,5.80
2022-08-03T14:34:41.122Z,2.90
2022-08-03T14:37:23.947Z,2.40
2022-08-03T14:40:08.903Z,2.20
2022-08-03T14:45:34.071Z,3.00
2022-08-03T14:50:34.712Z,2.60
2022-08-03T14:51:21.906Z,2.50
2022-08-03T14:54:05.468Z,3.00
2022-08-03T14:56:48.152Z,2.40
2022-08-03T14:59:55.453Z,3.70
2022-08-03T15:02:33.653Z,3.10
2022-08-03T15:05:16.536Z,3.00
2022-08-03T15:07:59.330Z,2.70
2022-08-03T15:10:45.401Z,2.90
2022-08-03T15:13:28.565Z,2.60
2022-08-03T15:16:13.680Z,2.70
2022-08-03T15:21:46.671Z,2.50
2022-08-03T15:24:30.322Z,2.30
2022-08-03T15:27:13.237Z,2.20
2022-08-03T15:30:07.648Z,2.60
2022-08-03T15:32:52.608Z,3.60
2022-08-03T15:35:35.761Z,3.10
2022-08-03T15:38:18.870Z,2.80
2022-08-03T15:41:01.998Z,4.00
2022-08-03T15:43:47.802Z,3.80
2022-08-03T15:46:30.837Z,2.50
2022-08-03T15:49:13.873Z,2.80
2022-08-03T15:51:56.670Z,2.60
2022-08-03T15:54:39.476Z,2.60
2022-08-03T15:57:22.659Z,3.90
2022-08-03T16:00:08.896Z,3.50
2022-08-03T16:02:56.776Z,2.80
2022-08-03T16:05:39.831Z,2.90
2022-08-03T16:08:22.875Z,2.90
2022-08-03T16:11:08.478Z,3.10
2022-08-03T16:14:13.402Z,3.10
2022-08-03T16:16:54.075Z,2.70
2022-08-03T16:19:36.911Z,2.40
2022-08-03T16:22:22.173Z,2.60
2022-08-03T16:25:15.952Z,4.50
2022-08-03T16:28:07.788Z,2.60
2022-08-03T16:30:55.772Z,2.40
2022-08-03T16:33:39.550Z,2.70
2022-08-03T16:36:22.547Z,3.60
2022-08-03T16:39:05.626Z,2.80
2022-08-03T16:41:54.348Z,2.80
2022-08-03T16:44:44.025Z,3.40
2022-08-03T16:47:27.045Z,2.90
2022-08-03T16:50:15.836Z,2.90
2022-08-03T16:53:05.177Z,2.60
2022-08-03T16:55:54.184Z,3.10
2022-08-03T16:58:42.135Z,3.00
2022-08-03T17:01:35.755Z,4.10
2022-08-03T17:07:04.532Z,2.80
2022-08-03T17:09:48.495Z,3.60
2022-08-03T17:12:32.238Z,3.60
2022-08-03T17:15:15.311Z,3.70
2022-08-03T17:18:07.498Z,2.70
2022-08-03T17:20:51.974Z,3.90
2022-08-03T17:23:44.209Z,3.60
2022-08-03T17:26:30.490Z,3.10
2022-08-03T17:29:19.677Z,3.00
2022-08-03T17:32:10.099Z,2.90
2022-08-03T17:34:55.182Z,3.70
2022-08-03T17:37:58.363Z,3.30
2022-08-03T17:40:48.110Z,3.60
2022-08-03T17:44:13.784Z,3.80
2022-08-03T17:46:38.112Z,3.60
2022-08-03T17:49:25.576Z,4.20
2022-08-03T17:52:17.644Z,3.30
2022-08-03T17:55:56.320Z,4.10
2022-08-03T17:58:20.899Z,3.20
2022-08-03T18:02:06.217Z,3.90
2022-08-03T18:04:30.339Z,3.20
2022-08-03T18:07:18.268Z,3.70
2022-08-03T18:10:06.331Z,4.50
2022-08-03T18:13:10.399Z,3.10
2022-08-03T18:16:00.483Z,4.30
2022-08-03T18:18:48.663Z,4.10
2022-08-03T18:22:02.184Z,3.90
2022-08-03T18:24:37.900Z,3.70
2022-08-03T18:27:22.680Z,4.80
2022-08-03T18:30:08.377Z,3.70
2022-08-03T18:33:00.643Z,5.40
2022-08-03T18:35:59.910Z,5.20
2022-08-03T18:38:43.727Z,4.90
2022-08-03T18:41:32.113Z,4.50
2022-08-03T18:44:37.579Z,6.40
2022-08-03T18:47:52.483Z,10.00
2022-08-03T18:50:40.558Z,9.80
2022-08-03T18:56:44.085Z,7.50
2022-08-03T18:59:38.916Z,6.80
2022-08-03T19:02:29.193Z,6.10
2022-08-03T19:05:16.279Z,5.60
2022-08-03T19:08:04.274Z,5.40
2022-08-03T19:10:57.866Z,5.60
2022-08-03T19:13:50.303Z,5.20
2022-08-03T19:16:39.321Z,5.70
2022-08-03T19:19:44.878Z,6.60
2022-08-03T19:22:28.797Z,6.90
2022-08-03T19:25:13.665Z,4.90
2022-08-03T19:28:00.352Z,5.40
2022-08-03T19:30:53.709Z,7.30
2022-08-03T19:33:55.675Z,5.90
2022-08-03T19:36:43.783Z,5.50
2022-08-03T19:39:27.075Z,6.00
2022-08-03T19:42:20.052Z,5.30
2022-08-03T19:45:13.953Z,5.40
2022-08-03T19:48:09.723Z,5.20
2022-08-03T19:50:56.965Z,5.50
2022-08-03T19:53:46.473Z,6.00
2022-08-03T19:56:31.147Z,6.80
2022-08-03T19:59:15.333Z,6.10
2022-08-03T20:01:58.266Z,5.20
2022-08-03T20:04:41.502Z,8.00
2022-08-03T20:07:25.168Z,5.80
2022-08-03T20:10:10.054Z,5.70
2022-08-03T20:12:53.876Z,6.70
2022-08-03T20:15:41.382Z,6.10
2022-08-03T20:18:24.696Z,5.50
2022-08-03T20:21:15.138Z,5.50
2022-08-03T20:24:24.298Z,6.10
2022-08-03T20:27:10.460Z,6.00
2022-08-03T20:30:07.175Z,6.20
2022-08-03T20:32:51.793Z,6.10
2022-08-03T20:35:35.598Z,6.30
2022-08-03T20:38:19.642Z,7.40
2022-08-03T20:41:03.811Z,5.80
2022-08-03T20:43:48.322Z,6.20
2022-08-03T20:46:46.433Z,7.80
2022-08-03T20:49:45.651Z,7.00
2022-08-03T20:52:31.262Z,7.20
2022-08-03T20:55:16.093Z,7.30
2022-08-03T20:58:00.035Z,7.10
2022-08-03T21:00:43.479Z,6.60
2022-08-03T21:03:41.053Z,7.10
2022-08-03T21:06:36.845Z,6.80
2022-08-03T21:09:23.949Z,7.10
2022-08-03T21:12:22.244Z,8.70
2022-08-03T21:16:02.237Z,8.50
2022-08-03T21:18:17.099Z,8.10
2022-08-03T21:21:00.818Z,8.70
2022-08-03T21:23:48.300Z,9.10
2022-08-03T21:26:37.548Z,8.70
2022-08-03T21:29:24.004Z,7.90
2022-08-03T21:32:07.995Z,8.00
2022-08-03T21:34:51.923Z,7.80
2022-08-03T21:37:35.014Z,8.30
2022-08-03T21:40:17.887Z,8.40
2022-08-03T21:43:00.882Z,7.60
2022-08-03T21:45:49.753Z,10.20
2022-08-03T21:48:36.590Z,9.50
2022-08-03T21:51:23.464Z,10.30
2022-08-03T21:54:07.241Z,8.40
2022-08-03T21:56:54.537Z,7.50
2022-08-03T21:59:42.741Z,7.50
2022-08-03T22:02:31.356Z,8.20
2022-08-03T22:05:17.025Z,7.20
2022-08-03T22:08:00.567Z,6.50
2022-08-03T22:10:46.006Z,6.90
2022-08-03T22:13:43.555Z,6.80
2022-08-03T22:16:28.260Z,7.00
2022-08-03T22:19:13.437Z,6.60
2022-08-03T22:22:03.867Z,6.80
2022-08-03T22:24:48.272Z,6.80
2022-08-03T22:27:32.594Z,6.60
2022-08-03T22:30:18.131Z,6.50
2022-08-03T22:33:05.052Z,6.60
2022-08-03T22:35:58.587Z,8.70
2022-08-03T22:38:42.018Z,9.10
2022-08-03T22:41:28.805Z,8.80
2022-08-03T22:44:15.448Z,8.60
2022-08-03T22:46:59.193Z,9.40
2022-08-03T22:49:43.298Z,8.10
2022-08-03T22:52:28.145Z,8.10
2022-08-03T22:55:18.873Z,7.30
2022-08-03T22:58:07.888Z,9.10
2022-08-03T23:00:54.236Z,9.30
2022-08-03T23:04:01.221Z,12.90
2022-08-03T23:06:50.162Z,11.00
2022-08-03T23:09:33.714Z,9.40
2022-08-03T23:12:19.804Z,8.20
2022-08-03T23:15:06.146Z,7.80
2022-08-03T23:17:57.369Z,8.40
2022-08-03T23:20:42.226Z,7.70
2022-08-03T23:23:30.596Z,7.00
2022-08-03T23:26:29.580Z,7.60
2022-08-03T23:29:15.940Z,7.20
2022-08-03T23:32:00.773Z,7.30
2022-08-03T23:35:02.975Z,6.10
2022-08-03T23:38:04.619Z,7.20
2022-08-03T23:40:51.225Z,7.40
2022-08-03T23:43:52.077Z,7.70
2022-08-03T23:46:38.641Z,6.50
2022-08-03T23:49:24.227Z,6.80
2022-08-03T23:52:12.696Z,7.50
2022-08-03T23:55:16.201Z,6.60
2022-08-03T23:58:05.057Z,6.40
